sensor_id;sensor_type;location;lat;lon;timestamp;pressure;altitude;pressure_sealevel;temperature;humidity
54465;BME280;40374;49.480;20.016;2023-01-24T00:00:51;96471.25;;;0.74;100.00
54465;BME280;40374;49.480;20.016;2023-01-24T00:03:20;96481.66;;;0.76;100.00
54465;BME280;40374;49.480;20.016;2023-01-24T00:05:49;96474.78;;;0.81;100.00
54465;BME280;40374;49.480;20.016;2023-01-24T00:08:17;96469.50;;;0.81;100.00
54465;BME280;40374;49.480;20.016;2023-01-24T00:11:04;96473.44;;;0.86;100.00
54465;BME280;40374;49.480;20.016;2023-01-24T00:13:34;96470.22;;;0.75;100.00
54465;BME280;40374;49.480;20.016;2023-01-24T00:16:16;96468.22;;;0.77;100.00
54465;BME280;40374;49.480;20.016;2023-01-24T00:18:45;96470.94;;;0.69;100.00
54465;BME280;40374;49.480;20.016;2023-01-24T00:21:18;96468.03;;;0.64;100.00
54465;BME280;40374;49.480;20.016;2023-01-24T00:23:48;96454.06;;;0.55;100.00
54465;BME280;40374;49.480;20.016;2023-01-24T00:26:18;96460.69;;;0.51;100.00
54465;BME280;40374;49.480;20.016;2023-01-24T00:28:46;96470.41;;;0.59;100.00
54465;BME280;40374;49.480;20.016;2023-01-24T00:31:14;96468.41;;;0.61;100.00
54465;BME280;40374;49.480;20.016;2023-01-24T00:33:42;96474.03;;;0.58;100.00
54465;BME280;40374;49.480;20.016;2023-01-24T00:36:10;96470.41;;;0.59;100.00
54465;BME280;40374;49.480;20.016;2023-01-24T00:38:38;96466.47;;;0.55;100.00
54465;BME280;40374;49.480;20.016;2023-01-24T00:41:08;96479.97;;;0.60;100.00
54465;BME280;40374;49.480;20.016;2023-01-24T00:43:35;96467.44;;;0.54;100.00
54465;BME280;40374;49.480;20.016;2023-01-24T00:46:07;96467.47;;;0.69;100.00
54465;BME280;40374;49.480;20.016;2023-01-24T00:48:35;96467.56;;;0.60;100.00
54465;BME280;40374;49.480;20.016;2023-01-24T00:51:03;96478.25;;;0.67;100.00
54465;BME280;40374;49.480;20.016;2023-01-24T00:53:30;96476.59;;;0.66;100.00
54465;BME280;40374;49.480;20.016;2023-01-24T00:55:58;96470.03;;;0.62;100.00
54465;BME280;40374;49.480;20.016;2023-01-24T00:58:25;96478.53;;;0.72;100.00
54465;BME280;40374;49.480;20.016;2023-01-24T01:00:56;96464.59;;;0.78;100.00
54465;BME280;40374;49.480;20.016;2023-01-24T01:03:25;96473.25;;;0.72;100.00
54465;BME280;40374;49.480;20.016;2023-01-24T01:06:07;96472.16;;;0.81;100.00
54465;BME280;40374;49.480;20.016;2023-01-24T01:08:36;96471.16;;;0.83;100.00
54465;BME280;40374;49.480;20.016;2023-01-24T01:11:04;96478.28;;;0.82;100.00
54465;BME280;40374;49.480;20.016;2023-01-24T01:13:31;96470.69;;;0.79;100.00
54465;BME280;40374;49.480;20.016;2023-01-24T01:16:02;96479.03;;;0.91;100.00
54465;BME280;40374;49.480;20.016;2023-01-24T01:18:30;96472.78;;;0.84;100.00
54465;BME280;40374;49.480;20.016;2023-01-24T01:20:58;96477.09;;;0.85;100.00
54465;BME280;40374;49.480;20.016;2023-01-24T01:23:26;96478.38;;;0.89;100.00
54465;BME280;40374;49.480;20.016;2023-01-24T01:25:58;96485.59;;;0.95;100.00
54465;BME280;40374;49.480;20.016;2023-01-24T01:28:27;96474.38;;;0.93;100.00
54465;BME280;40374;49.480;20.016;2023-01-24T01:30:55;96471.25;;;0.89;100.00
54465;BME280;40374;49.480;20.016;2023-01-24T01:33:23;96494.19;;;0.97;100.00
54465;BME280;40374;49.480;20.016;2023-01-24T01:35:52;96470.06;;;0.92;100.00
54465;BME280;40374;49.480;20.016;2023-01-24T01:38:20;96477.03;;;0.93;100.00
54465;BME280;40374;49.480;20.016;2023-01-24T01:40:47;96473.34;;;0.94;100.00
54465;BME280;40374;49.480;20.016;2023-01-24T01:43:18;96482.88;;;1.03;100.00
54465;BME280;40374;49.480;20.016;2023-01-24T01:45:50;96481.22;;;1.02;100.00
54465;BME280;40374;49.480;20.016;2023-01-24T01:48:37;96492.38;;;1.12;100.00
54465;BME280;40374;49.480;20.016;2023-01-24T01:54:07;96487.44;;;1.09;100.00
54465;BME280;40374;49.480;20.016;2023-01-24T01:59:29;96494.94;;;1.06;100.00
54465;BME280;40374;49.480;20.016;2023-01-24T02:01:59;96484.69;;;1.02;100.00
54465;BME280;40374;49.480;20.016;2023-01-24T02:04:38;96494.13;;;1.05;100.00
54465;BME280;40374;49.480;20.016;2023-01-24T02:07:11;96494.75;;;1.07;100.00
54465;BME280;40374;49.480;20.016;2023-01-24T02:09:43;96501.94;;;1.13;100.00
54465;BME280;40374;49.480;20.016;2023-01-24T02:12:32;96494.47;;;1.17;100.00
54465;BME280;40374;49.480;20.016;2023-01-24T02:15:08;96491.72;;;1.10;100.00
54465;BME280;40374;49.480;20.016;2023-01-24T02:17:55;96479.47;;;0.94;100.00
54465;BME280;40374;49.480;20.016;2023-01-24T02:28:05;96485.94;;;0.92;100.00
54465;BME280;40374;49.480;20.016;2023-01-24T02:30:35;96490.25;;;0.93;100.00
54465;BME280;40374;49.480;20.016;2023-01-24T02:33:11;96493.56;;;0.95;100.00
54465;BME280;40374;49.480;20.016;2023-01-24T02:35:39;96497.28;;;0.86;100.00
54465;BME280;40374;49.480;20.016;2023-01-24T02:38:34;96492.91;;;0.93;100.00
54465;BME280;40374;49.480;20.016;2023-01-24T02:41:00;96485.22;;;0.83;100.00
54465;BME280;40374;49.480;20.016;2023-01-24T02:43:40;96493.97;;;0.84;100.00
54465;BME280;40374;49.480;20.016;2023-01-24T02:46:10;96494.69;;;0.77;100.00
54465;BME280;40374;49.480;20.016;2023-01-24T02:48:38;96496.38;;;0.78;100.00
54465;BME280;40374;49.480;20.016;2023-01-24T02:51:05;96484.81;;;0.71;100.00
54465;BME280;40374;49.480;20.016;2023-01-24T02:53:51;96479.44;;;0.65;100.00
54465;BME280;40374;49.480;20.016;2023-01-24T02:56:18;96477.63;;;0.65;100.00
54465;BME280;40374;49.480;20.016;2023-01-24T02:59:05;96486.47;;;0.72;100.00
54465;BME280;40374;49.480;20.016;2023-01-24T03:01:33;96490.13;;;0.71;100.00
54465;BME280;40374;49.480;20.016;2023-01-24T03:04:01;96478.69;;;0.56;100.00
54465;BME280;40374;49.480;20.016;2023-01-24T03:06:30;96493.84;;;0.62;100.00
54465;BME280;40374;49.480;20.016;2023-01-24T03:08:58;96489.59;;;0.61;100.00
54465;BME280;40374;49.480;20.016;2023-01-24T03:11:32;96489.22;;;0.64;100.00
54465;BME280;40374;49.480;20.016;2023-01-24T03:14:00;96486.72;;;0.63;100.00
54465;BME280;40374;49.480;20.016;2023-01-24T03:16:46;96489.22;;;0.64;100.00
54465;BME280;40374;49.480;20.016;2023-01-24T03:19:33;96481.19;;;0.72;100.00
54465;BME280;40374;49.480;20.016;2023-01-24T03:22:19;96480.53;;;0.70;100.00
54465;BME280;40374;49.480;20.016;2023-01-24T03:25:05;96492.06;;;0.77;100.00
54465;BME280;40374;49.480;20.016;2023-01-24T03:27:51;96477.91;;;0.70;100.00
54465;BME280;40374;49.480;20.016;2023-01-24T03:30:37;96487.41;;;0.79;100.00
54465;BME280;40374;49.480;20.016;2023-01-24T03:33:24;96496.84;;;0.82;100.00
54465;BME280;40374;49.480;20.016;2023-01-24T03:36:13;96497.09;;;0.87;100.00
54465;BME280;40374;49.480;20.016;2023-01-24T03:38:50;96504.22;;;0.87;100.00
54465;BME280;40374;49.480;20.016;2023-01-24T03:41:36;96491.63;;;0.89;100.00
54465;BME280;40374;49.480;20.016;2023-01-24T03:44:04;96497.28;;;0.86;100.00
54465;BME280;40374;49.480;20.016;2023-01-24T03:46:32;96500.47;;;0.81;100.00
54465;BME280;40374;49.480;20.016;2023-01-24T03:48:59;96502.94;;;0.83;100.00
54465;BME280;40374;49.480;20.016;2023-01-24T03:51:32;96498.94;;;0.87;100.00
54465;BME280;40374;49.480;20.016;2023-01-24T03:54:18;96498.38;;;0.76;100.00
54465;BME280;40374;49.480;20.016;2023-01-24T03:56:56;96485.59;;;0.80;100.00
54465;BME280;40374;49.480;20.016;2023-01-24T03:59:24;96495.91;;;0.90;100.00
54465;BME280;40374;49.480;20.016;2023-01-24T04:01:52;96499.91;;;0.86;100.00
54465;BME280;40374;49.480;20.016;2023-01-24T04:04:24;96495.97;;;0.81;100.00
54465;BME280;40374;49.480;20.016;2023-01-24T04:07:12;96491.78;;;0.72;100.00
54465;BME280;40374;49.480;20.016;2023-01-24T04:09:53;96499.19;;;0.77;100.00
54465;BME280;40374;49.480;20.016;2023-01-24T04:12:21;96511.59;;;0.76;100.00
54465;BME280;40374;49.480;20.016;2023-01-24T04:14:48;96510.06;;;0.82;100.00
54465;BME280;40374;49.480;20.016;2023-01-24T04:17:19;96498.38;;;0.76;100.00
54465;BME280;40374;49.480;20.016;2023-01-24T04:19:50;96502.56;;;0.86;100.00
54465;BME280;40374;49.480;20.016;2023-01-24T04:22:18;96501.28;;;0.81;100.00
54465;BME280;40374;49.480;20.016;2023-01-24T04:24:45;96511.97;;;0.88;100.00
54465;BME280;40374;49.480;20.016;2023-01-24T04:27:13;96506.50;;;0.90;100.00
54465;BME280;40374;49.480;20.016;2023-01-24T04:30:00;96516.94;;;0.91;100.00
54465;BME280;40374;49.480;20.016;2023-01-24T04:32:31;96500.28;;;0.83;100.00
54465;BME280;40374;49.480;20.016;2023-01-24T04:35:03;96504.88;;;0.89;100.00
54465;BME280;40374;49.480;20.016;2023-01-24T04:37:58;96510.06;;;0.82;100.00
54465;BME280;40374;49.480;20.016;2023-01-24T04:40:38;96505.09;;;0.64;100.00
54465;BME280;40374;49.480;20.016;2023-01-24T04:43:08;96514.50;;;0.67;100.00
54465;BME280;40374;49.480;20.016;2023-01-24T04:45:36;96508.38;;;0.66;100.00
54465;BME280;40374;49.480;20.016;2023-01-24T04:48:07;96514.97;;;0.70;100.00
54465;BME280;40374;49.480;20.016;2023-01-24T04:50:34;96511.03;;;0.66;100.00
54465;BME280;40374;49.480;20.016;2023-01-24T04:53:02;96511.03;;;0.66;100.00
54465;BME280;40374;49.480;20.016;2023-01-24T04:55:29;96505.25;;;0.63;100.00
54465;BME280;40374;49.480;20.016;2023-01-24T04:57:57;96511.03;;;0.66;100.00
54465;BME280;40374;49.480;20.016;2023-01-24T05:00:24;96507.38;;;0.67;100.00
54465;BME280;40374;49.480;20.016;2023-01-24T05:02:53;96509.03;;;0.68;100.00
54465;BME280;40374;49.480;20.016;2023-01-24T05:05:21;96510.97;;;0.74;100.00
54465;BME280;40374;49.480;20.016;2023-01-24T05:19:47;96520.03;;;-0.12;100.00
54465;BME280;40374;49.480;20.016;2023-01-24T05:22:16;96524.41;;;0.04;100.00
54465;BME280;40374;49.480;20.016;2023-01-24T05:24:43;96525.47;;;0.17;100.00
54465;BME280;40374;49.480;20.016;2023-01-24T05:27:11;96526.25;;;0.26;100.00
54465;BME280;40374;49.480;20.016;2023-01-24T05:29:42;96516.63;;;0.25;100.00
54465;BME280;40374;49.480;20.016;2023-01-24T05:32:10;96523.22;;;0.29;100.00
54465;BME280;40374;49.480;20.016;2023-01-24T05:34:37;96519.50;;;0.24;100.00
54465;BME280;40374;49.480;20.016;2023-01-24T05:37:07;96519.13;;;0.27;100.00
54465;BME280;40374;49.480;20.016;2023-01-24T05:39:36;96526.25;;;0.26;100.00
54465;BME280;40374;49.480;20.016;2023-01-24T05:42:04;96515.38;;;0.21;100.00
54465;BME280;40374;49.480;20.016;2023-01-24T05:44:40;96499.03;;;0.17;100.00
54465;BME280;40374;49.480;20.016;2023-01-24T05:47:07;96516.63;;;0.25;100.00
54465;BME280;40374;49.480;20.016;2023-01-24T05:49:38;96517.00;;;0.22;100.00
54465;BME280;40374;49.480;20.016;2023-01-24T05:52:06;96516.84;;;0.24;100.00
54465;BME280;40374;49.480;20.016;2023-01-24T05:54:53;96527.69;;;0.29;100.00
54465;BME280;40374;49.480;20.016;2023-01-24T05:57:25;96521.94;;;0.25;100.00
54465;BME280;40374;49.480;20.016;2023-01-24T06:00:11;96532.47;;;0.33;100.00
54465;BME280;40374;49.480;20.016;2023-01-24T06:02:50;96537.81;;;0.25;100.00
54465;BME280;40374;49.480;20.016;2023-01-24T06:05:20;96519.16;;;0.18;100.00
54465;BME280;40374;49.480;20.016;2023-01-24T06:07:48;96503.13;;;0.20;100.00
54465;BME280;40374;49.480;20.016;2023-01-24T06:10:15;96526.94;;;0.20;100.00
54465;BME280;40374;49.480;20.016;2023-01-24T06:12:52;96527.31;;;0.17;100.00
54465;BME280;40374;49.480;20.016;2023-01-24T06:15:19;96527.13;;;0.18;100.00
54465;BME280;40374;49.480;20.016;2023-01-24T06:17:47;96527.47;;;0.15;100.00
54465;BME280;40374;49.480;20.016;2023-01-24T06:20:16;96536.19;;;0.24;100.00
54465;BME280;40374;49.480;20.016;2023-01-24T06:22:50;96536.13;;;0.32;100.00
54465;BME280;40374;49.480;20.016;2023-01-24T06:25:21;96537.34;;;0.45;100.00
54465;BME280;40374;49.480;20.016;2023-01-24T06:27:50;96541.34;;;0.40;100.00
54465;BME280;40374;49.480;20.016;2023-01-24T06:30:18;96547.63;;;0.39;100.00
54465;BME280;40374;49.480;20.016;2023-01-24T06:33:32;96548.41;;;0.48;100.00
54465;BME280;40374;49.480;20.016;2023-01-24T06:38:44;96543.09;;;0.48;100.00
54465;BME280;40374;49.480;20.016;2023-01-24T06:41:16;96542.41;;;0.54;100.00
54465;BME280;40374;49.480;20.016;2023-01-24T06:43:44;96553.81;;;0.55;100.00
54465;BME280;40374;49.480;20.016;2023-01-24T06:46:12;96546.16;;;0.60;100.00
54465;BME280;40374;49.480;20.016;2023-01-24T06:48:44;96549.13;;;0.65;100.00
54465;BME280;40374;49.480;20.016;2023-01-24T06:51:12;96553.41;;;0.66;100.00
54465;BME280;40374;49.480;20.016;2023-01-24T06:53:41;96560.81;;;0.71;100.00
54465;BME280;40374;49.480;20.016;2023-01-24T06:56:08;96549.47;;;0.62;100.00
54465;BME280;40374;49.480;20.016;2023-01-24T06:58:37;96563.94;;;0.74;100.00
54465;BME280;40374;49.480;20.016;2023-01-24T07:01:04;96568.03;;;0.77;100.00
54465;BME280;40374;49.480;20.016;2023-01-24T07:03:32;96566.69;;;0.81;100.00
54465;BME280;40374;49.480;20.016;2023-01-24T07:05:59;96561.56;;;0.79;100.00
54465;BME280;40374;49.480;20.016;2023-01-24T07:08:27;96573.91;;;0.87;100.00
54465;BME280;40374;49.480;20.016;2023-01-24T07:10:57;96578.97;;;0.97;100.00
54465;BME280;40374;49.480;20.016;2023-01-24T07:13:25;96574.38;;;0.91;100.00
54465;BME280;40374;49.480;20.016;2023-01-24T07:15:52;96579.63;;;0.99;100.00
54465;BME280;40374;49.480;20.016;2023-01-24T07:18:20;96577.06;;;1.06;100.00
54465;BME280;40374;49.480;20.016;2023-01-24T07:20:48;96568.00;;;1.00;100.00
54465;BME280;40374;49.480;20.016;2023-01-24T07:23:24;96558.84;;;1.02;100.00
54465;BME280;40374;49.480;20.016;2023-01-24T07:25:52;96588.50;;;1.21;100.00
54465;BME280;40374;49.480;20.016;2023-01-24T07:28:19;96583.75;;;1.16;100.00
54465;BME280;40374;49.480;20.016;2023-01-24T07:30:47;96571.38;;;1.09;100.00
54465;BME280;40374;49.480;20.016;2023-01-24T07:33:16;96586.66;;;1.21;100.00
54465;BME280;40374;49.480;20.016;2023-01-24T07:35:43;96596.44;;;1.21;100.00
54465;BME280;40374;49.480;20.016;2023-01-24T07:38:11;96585.03;;;1.20;100.00
54465;BME280;40374;49.480;20.016;2023-01-24T07:40:39;96588.22;;;1.16;100.00
54465;BME280;40374;49.480;20.016;2023-01-24T07:43:07;96593.44;;;1.09;100.00
54465;BME280;40374;49.480;20.016;2023-01-24T07:45:34;96588.13;;;1.09;100.00
54465;BME280;40374;49.480;20.016;2023-01-24T07:48:03;96593.06;;;1.12;100.00
54465;BME280;40374;49.480;20.016;2023-01-24T07:50:31;96604.16;;;1.31;100.00
54465;BME280;40374;49.480;20.016;2023-01-24T07:52:59;96603.13;;;1.32;100.00
54465;BME280;40374;49.480;20.016;2023-01-24T07:55:27;96608.34;;;1.40;100.00
54465;BME280;40374;49.480;20.016;2023-01-24T07:58:01;96606.25;;;1.50;100.00
54465;BME280;40374;49.480;20.016;2023-01-24T08:00:29;96611.56;;;1.50;100.00
54465;BME280;40374;49.480;20.016;2023-01-24T08:02:57;96605.63;;;1.48;100.00
54465;BME280;40374;49.480;20.016;2023-01-24T08:05:25;96599.13;;;1.66;100.00
54465;BME280;40374;49.480;20.016;2023-01-24T08:07:54;96603.34;;;1.75;100.00
54465;BME280;40374;49.480;20.016;2023-01-24T08:10:21;96598.03;;;1.75;100.00
54465;BME280;40374;49.480;20.016;2023-01-24T08:12:49;96599.13;;;1.66;100.00
54465;BME280;40374;49.480;20.016;2023-01-24T08:15:17;96597.97;;;1.68;100.00
54465;BME280;40374;49.480;20.016;2023-01-24T08:17:45;96601.25;;;1.70;100.00
54465;BME280;40374;49.480;20.016;2023-01-24T08:20:12;96600.69;;;1.75;100.00
54465;BME280;40374;49.480;20.016;2023-01-24T08:22:41;96594.13;;;1.71;100.00
54465;BME280;40374;49.480;20.016;2023-01-24T08:25:27;96597.59;;;1.71;100.00
54465;BME280;40374;49.480;20.016;2023-01-24T08:27:55;96602.81;;;1.65;100.00
54465;BME280;40374;49.480;20.016;2023-01-24T08:30:23;96599.50;;;1.62;100.00
54465;BME280;40374;49.480;20.016;2023-01-24T08:32:59;96600.50;;;1.61;100.00
54465;BME280;40374;49.480;20.016;2023-01-24T08:35:26;96608.28;;;1.48;100.00
54465;BME280;40374;49.480;20.016;2023-01-24T08:37:54;96607.47;;;1.48;100.00
54465;BME280;40374;49.480;20.016;2023-01-24T08:40:21;96613.22;;;1.51;100.00
54465;BME280;40374;49.480;20.016;2023-01-24T08:42:49;96617.78;;;1.57;100.00
54465;BME280;40374;49.480;20.016;2023-01-24T08:45:17;96602.88;;;1.56;100.00
54465;BME280;40374;49.480;20.016;2023-01-24T08:47:50;96611.88;;;1.70;100.00
54465;BME280;40374;49.480;20.016;2023-01-24T08:50:19;96598.78;;;1.69;100.00
54465;BME280;40374;49.480;20.016;2023-01-24T08:52:54;96612.59;;;1.79;100.00
54465;BME280;40374;49.480;20.016;2023-01-24T08:55:22;96614.78;;;1.75;100.00
54465;BME280;40374;49.480;20.016;2023-01-24T08:57:50;96612.13;;;1.75;100.00
54465;BME280;40374;49.480;20.016;2023-01-24T09:00:18;96608.75;;;1.67;100.00
54465;BME280;40374;49.480;20.016;2023-01-24T09:02:46;96621.63;;;1.70;100.00
54465;BME280;40374;49.480;20.016;2023-01-24T09:05:13;96621.28;;;1.73;100.00
54465;BME280;40374;49.480;20.016;2023-01-24T09:07:41;96609.75;;;1.66;100.00
54465;BME280;40374;49.480;20.016;2023-01-24T09:10:09;96613.97;;;1.75;100.00
54465;BME280;40374;49.480;20.016;2023-01-24T09:12:37;96608.56;;;1.68;100.00
54465;BME280;40374;49.480;20.016;2023-01-24T09:15:04;96624.56;;;1.75;100.00
54465;BME280;40374;49.480;20.016;2023-01-24T09:17:32;96628.22;;;1.74;100.00
54465;BME280;40374;49.480;20.016;2023-01-24T09:20:01;96626.41;;;1.74;100.00
54465;BME280;40374;49.480;20.016;2023-01-24T09:22:29;96622.09;;;1.73;100.00
54465;BME280;40374;49.480;20.016;2023-01-24T09:24:56;96623.19;;;1.79;100.00
54465;BME280;40374;49.480;20.016;2023-01-24T09:27:24;96626.13;;;1.84;100.00
54465;BME280;40374;49.480;20.016;2023-01-24T09:29:51;96627.56;;;1.87;100.00
54465;BME280;40374;49.480;20.016;2023-01-24T09:32:19;96606.81;;;1.90;100.00
54465;BME280;40374;49.480;20.016;2023-01-24T09:34:47;96625.81;;;2.09;100.00
54465;BME280;40374;49.480;20.016;2023-01-24T09:37:20;96626.25;;;2.27;100.00
54465;BME280;40374;49.480;20.016;2023-01-24T09:39:48;96619.28;;;2.26;100.00
54465;BME280;40374;49.480;20.016;2023-01-24T09:42:37;96624.00;;;2.46;100.00
54465;BME280;40374;49.480;20.016;2023-01-24T09:47:42;96618.44;;;2.62;100.00
54465;BME280;40374;49.480;20.016;2023-01-24T09:50:21;96621.25;;;2.75;100.00
54465;BME280;40374;49.480;20.016;2023-01-24T09:52:53;96607.22;;;2.81;100.00
54465;BME280;40374;49.480;20.016;2023-01-24T09:55:25;96614.84;;;2.91;100.00
54465;BME280;40374;49.480;20.016;2023-01-24T10:00:38;96601.88;;;3.03;100.00
54465;BME280;40374;49.480;20.016;2023-01-24T10:03:32;96599.78;;;3.20;100.00
54465;BME280;40374;49.480;20.016;2023-01-24T10:06:22;96591.44;;;3.30;100.00
54465;BME280;40374;49.480;20.016;2023-01-24T10:20:14;96585.06;;;4.42;100.00
54465;BME280;40374;49.480;20.016;2023-01-24T10:23:04;96585.94;;;4.82;100.00
54465;BME280;40374;49.480;20.016;2023-01-24T10:28:01;96573.25;;;5.11;100.00
54465;BME280;40374;49.480;20.016;2023-01-24T10:30:40;96576.94;;;5.10;100.00
54465;BME280;40374;49.480;20.016;2023-01-24T10:33:15;96573.25;;;5.18;100.00
54465;BME280;40374;49.480;20.016;2023-01-24T10:36:11;96571.00;;;4.95;100.00
54465;BME280;40374;49.480;20.016;2023-01-24T10:38:41;96573.03;;;4.99;100.00
54465;BME280;40374;49.480;20.016;2023-01-24T10:41:18;96569.56;;;5.05;100.00
54465;BME280;40374;49.480;20.016;2023-01-24T10:43:53;96549.66;;;4.95;100.00
54465;BME280;40374;49.480;20.016;2023-01-24T10:49:11;96556.44;;;4.97;100.00
54465;BME280;40374;49.480;20.016;2023-01-24T10:52:08;96566.69;;;4.87;100.00
54465;BME280;40374;49.480;20.016;2023-01-24T10:54:54;96568.09;;;4.83;100.00
54465;BME280;40374;49.480;20.016;2023-01-24T10:57:37;96562.81;;;4.90;100.00
54465;BME280;40374;49.480;20.016;2023-01-24T11:02:46;96556.44;;;4.91;100.00
54465;BME280;40374;49.480;20.016;2023-01-24T11:05:14;96545.38;;;4.94;100.00
54465;BME280;40374;49.480;20.016;2023-01-24T11:07:59;96531.81;;;4.82;100.00
54465;BME280;40374;49.480;20.016;2023-01-24T11:10:36;96524.66;;;4.69;100.00
54465;BME280;40374;49.480;20.016;2023-01-24T11:21:17;96546.16;;;4.74;100.00
54465;BME280;40374;49.480;20.016;2023-01-24T11:23:59;96525.66;;;4.68;100.00
54465;BME280;40374;49.480;20.016;2023-01-24T11:26:30;96531.41;;;4.78;100.00
54465;BME280;40374;49.480;20.016;2023-01-24T11:29:04;96532.88;;;4.81;100.00
54465;BME280;40374;49.480;20.016;2023-01-24T11:31:42;96532.66;;;5.02;100.00
54465;BME280;40374;49.480;20.016;2023-01-24T11:34:39;96527.97;;;5.83;100.00
54465;BME280;40374;49.480;20.016;2023-01-24T11:42:36;96523.41;;;7.24;100.00
54465;BME280;40374;49.480;20.016;2023-01-24T11:45:22;96520.06;;;7.28;100.00
54465;BME280;40374;49.480;20.016;2023-01-24T11:48:18;96520.94;;;7.22;100.00
54465;BME280;40374;49.480;20.016;2023-01-24T11:53:52;96523.00;;;7.02;100.00
54465;BME280;40374;49.480;20.016;2023-01-24T11:56:29;96523.06;;;6.95;100.00
54465;BME280;40374;49.480;20.016;2023-01-24T12:10:56;96524.06;;;5.85;100.00
54465;BME280;40374;49.480;20.016;2023-01-24T12:14:21;96522.91;;;5.61;100.00
54465;BME280;40374;49.480;20.016;2023-01-24T12:22:18;96512.97;;;6.65;100.00
54465;BME280;40374;49.480;20.016;2023-01-24T12:25:02;96509.22;;;6.41;100.00
54465;BME280;40374;49.480;20.016;2023-01-24T12:27:34;96518.78;;;6.24;100.00
54465;BME280;40374;49.480;20.016;2023-01-24T12:33:21;96515.19;;;6.43;100.00
54465;BME280;40374;49.480;20.016;2023-01-24T12:36:12;96519.22;;;6.21;100.00
54465;BME280;40374;49.480;20.016;2023-01-24T12:38:45;96513.56;;;5.97;100.00
54465;BME280;40374;49.480;20.016;2023-01-24T12:41:35;96517.91;;;5.85;100.00
54465;BME280;40374;49.480;20.016;2023-01-24T12:44:34;96513.47;;;5.52;100.00
54465;BME280;40374;49.480;20.016;2023-01-24T12:47:31;96514.78;;;5.23;100.00
54465;BME280;40374;49.480;20.016;2023-01-24T12:50:25;96500.03;;;5.00;100.00
54465;BME280;40374;49.480;20.016;2023-01-24T12:53:20;96495.75;;;4.79;100.00
54465;BME280;40374;49.480;20.016;2023-01-24T12:56:16;96509.47;;;4.70;100.00
54465;BME280;40374;49.480;20.016;2023-01-24T12:58:55;96487.31;;;4.42;100.00
54465;BME280;40374;49.480;20.016;2023-01-24T13:04:15;96495.72;;;4.46;100.00
54465;BME280;40374;49.480;20.016;2023-01-24T13:12:03;96493.28;;;4.58;100.00
54465;BME280;40374;49.480;20.016;2023-01-24T13:14:38;96502.66;;;4.40;100.00
54465;BME280;40374;49.480;20.016;2023-01-24T13:28:26;96509.34;;;4.03;100.00
54465;BME280;40374;49.480;20.016;2023-01-24T13:31:17;96497.44;;;3.92;100.00
54465;BME280;40374;49.480;20.016;2023-01-24T13:34:14;96510.13;;;3.90;100.00
54465;BME280;40374;49.480;20.016;2023-01-24T13:36:46;96520.13;;;3.81;100.00
54465;BME280;40374;49.480;20.016;2023-01-24T13:39:32;96522.53;;;3.70;100.00
54465;BME280;40374;49.480;20.016;2023-01-24T13:42:19;96519.16;;;3.54;100.00
54465;BME280;40374;49.480;20.016;2023-01-24T13:44:47;96524.66;;;3.46;100.00
54465;BME280;40374;49.480;20.016;2023-01-24T13:50:11;96514.31;;;3.30;100.00
54465;BME280;40374;49.480;20.016;2023-01-24T13:52:44;96533.53;;;3.25;100.00
54465;BME280;40374;49.480;20.016;2023-01-24T14:00:50;96529.94;;;2.83;100.00
54465;BME280;40374;49.480;20.016;2023-01-24T14:03:26;96533.66;;;2.60;100.00
54465;BME280;40374;49.480;20.016;2023-01-24T14:08:34;96541.66;;;2.46;100.00
54465;BME280;40374;49.480;20.016;2023-01-24T14:13:54;96532.78;;;2.32;100.00
54465;BME280;40374;49.480;20.016;2023-01-24T14:21:59;96550.66;;;2.44;100.00
54465;BME280;40374;49.480;20.016;2023-01-24T14:24:35;96565.03;;;2.50;100.00
54465;BME280;40374;49.480;20.016;2023-01-24T14:29:53;96561.97;;;2.32;100.00
54465;BME280;40374;49.480;20.016;2023-01-24T14:35:22;96573.91;;;2.21;100.00
54465;BME280;40374;49.480;20.016;2023-01-24T14:37:51;96578.34;;;1.99;100.00
54465;BME280;40374;49.480;20.016;2023-01-24T14:40:24;96565.28;;;1.82;100.00
54465;BME280;40374;49.480;20.016;2023-01-24T14:43:02;96585.69;;;1.82;100.00
54465;BME280;40374;49.480;20.016;2023-01-24T14:45:34;96588.34;;;1.67;100.00
54465;BME280;40374;49.480;20.016;2023-01-24T14:48:07;96587.06;;;1.63;100.00
54465;BME280;40374;49.480;20.016;2023-01-24T14:50:38;96593.91;;;1.57;100.00
54465;BME280;40374;49.480;20.016;2023-01-24T14:53:28;96597.50;;;1.50;100.00
54465;BME280;40374;49.480;20.016;2023-01-24T14:56:07;96597.41;;;1.43;100.00
54465;BME280;40374;49.480;20.016;2023-01-24T14:58:36;96581.19;;;1.23;100.00
54465;BME280;40374;49.480;20.016;2023-01-24T15:01:31;96563.44;;;1.09;100.00
54465;BME280;40374;49.480;20.016;2023-01-24T15:04:02;96588.56;;;1.13;100.00
54465;BME280;40374;49.480;20.016;2023-01-24T15:06:35;96593.78;;;1.06;100.00
54465;BME280;40374;49.480;20.016;2023-01-24T15:09:05;96594.56;;;0.92;100.00
54465;BME280;40374;49.480;20.016;2023-01-24T15:11:35;96617.03;;;0.96;100.00
54465;BME280;40374;49.480;20.016;2023-01-24T15:14:06;96604.50;;;0.90;100.00
54465;BME280;40374;49.480;20.016;2023-01-24T15:16:53;96610.88;;;0.80;100.00
54465;BME280;40374;49.480;20.016;2023-01-24T15:19:25;96611.22;;;0.77;100.00
54465;BME280;40374;49.480;20.016;2023-01-24T15:21:55;96615.94;;;0.67;100.00
54465;BME280;40374;49.480;20.016;2023-01-24T15:24:26;96618.66;;;0.59;100.00
54465;BME280;40374;49.480;20.016;2023-01-24T15:26:56;96622.66;;;0.55;100.00
54465;BME280;40374;49.480;20.016;2023-01-24T15:29:45;96623.34;;;0.49;100.00
54465;BME280;40374;49.480;20.016;2023-01-24T15:32:21;96630.34;;;0.42;100.00
54465;BME280;40374;49.480;20.016;2023-01-24T15:34:49;96627.41;;;0.36;100.00
54465;BME280;40374;49.480;20.016;2023-01-24T15:37:17;96630.09;;;0.28;100.00